sensor_id;sensor_type;location;lat;lon;timestamp;P1;durP1;ratioP1;P2;durP2;ratioP2
73938;SDS011;62291;47.554;8.504;2022-12-07T00:01:04;51.22;;;26.85;;
73938;SDS011;62291;47.554;8.504;2022-12-07T00:03:36;49.72;;;26.58;;
73938;SDS011;62291;47.554;8.504;2022-12-07T00:06:03;52.90;;;26.90;;
73938;SDS011;62291;47.554;8.504;2022-12-07T00:08:30;52.95;;;27.70;;
73938;SDS011;62291;47.554;8.504;2022-12-07T00:11:39;51.53;;;27.38;;
73938;SDS011;62291;47.554;8.504;2022-12-07T00:13:47;54.78;;;27.25;;
73938;SDS011;62291;47.554;8.504;2022-12-07T00:16:17;55.85;;;27.40;;
73938;SDS011;62291;47.554;8.504;2022-12-07T00:18:45;54.13;;;27.75;;
73938;SDS011;62291;47.554;8.504;2022-12-07T00:21:12;51.03;;;27.60;;
73938;SDS011;62291;47.554;8.504;2022-12-07T00:23:40;52.38;;;27.35;;
73938;SDS011;62291;47.554;8.504;2022-12-07T00:26:08;53.22;;;27.40;;
73938;SDS011;62291;47.554;8.504;2022-12-07T00:28:38;47.77;;;26.33;;
73938;SDS011;62291;47.554;8.504;2022-12-07T00:31:05;48.20;;;26.52;;
73938;SDS011;62291;47.554;8.504;2022-12-07T00:33:35;51.38;;;27.88;;
73938;SDS011;62291;47.554;8.504;2022-12-07T00:36:03;54.33;;;28.40;;
73938;SDS011;62291;47.554;8.504;2022-12-07T00:38:33;52.72;;;27.83;;
73938;SDS011;62291;47.554;8.504;2022-12-07T00:41:04;54.30;;;27.85;;
73938;SDS011;62291;47.554;8.504;2022-12-07T00:43:40;52.50;;;28.25;;
73938;SDS011;62291;47.554;8.504;2022-12-07T00:46:07;52.05;;;27.63;;
73938;SDS011;62291;47.554;8.504;2022-12-07T00:48:33;48.10;;;26.80;;
73938;SDS011;62291;47.554;8.504;2022-12-07T00:50:59;52.20;;;27.38;;
73938;SDS011;62291;47.554;8.504;2022-12-07T00:53:26;50.83;;;26.42;;
73938;SDS011;62291;47.554;8.504;2022-12-07T00:55:53;46.60;;;27.15;;
73938;SDS011;62291;47.554;8.504;2022-12-07T00:58:20;49.00;;;27.77;;
73938;SDS011;62291;47.554;8.504;2022-12-07T01:00:46;56.38;;;28.55;;
73938;SDS011;62291;47.554;8.504;2022-12-07T01:03:12;53.00;;;28.17;;
73938;SDS011;62291;47.554;8.504;2022-12-07T01:05:39;53.83;;;28.35;;
73938;SDS011;62291;47.554;8.504;2022-12-07T01:08:05;51.20;;;28.00;;
73938;SDS011;62291;47.554;8.504;2022-12-07T01:10:32;51.58;;;27.35;;
73938;SDS011;62291;47.554;8.504;2022-12-07T01:12:58;51.65;;;28.27;;
73938;SDS011;62291;47.554;8.504;2022-12-07T01:15:24;51.75;;;27.75;;
73938;SDS011;62291;47.554;8.504;2022-12-07T01:17:50;52.10;;;27.98;;
73938;SDS011;62291;47.554;8.504;2022-12-07T01:20:16;52.40;;;28.20;;
73938;SDS011;62291;47.554;8.504;2022-12-07T01:22:43;50.22;;;27.20;;
73938;SDS011;62291;47.554;8.504;2022-12-07T01:25:09;48.85;;;27.23;;
73938;SDS011;62291;47.554;8.504;2022-12-07T01:27:36;50.70;;;27.95;;
73938;SDS011;62291;47.554;8.504;2022-12-07T01:30:03;51.55;;;27.95;;
73938;SDS011;62291;47.554;8.504;2022-12-07T01:32:30;58.47;;;28.80;;
73938;SDS011;62291;47.554;8.504;2022-12-07T01:34:57;52.63;;;29.08;;
73938;SDS011;62291;47.554;8.504;2022-12-07T01:37:22;49.13;;;27.23;;
73938;SDS011;62291;47.554;8.504;2022-12-07T01:39:48;55.20;;;28.55;;
73938;SDS011;62291;47.554;8.504;2022-12-07T01:42:15;55.97;;;28.05;;
73938;SDS011;62291;47.554;8.504;2022-12-07T01:47:44;52.17;;;27.58;;
73938;SDS011;62291;47.554;8.504;2022-12-07T01:50:15;54.72;;;27.45;;
73938;SDS011;62291;47.554;8.504;2022-12-07T01:52:41;53.33;;;28.88;;
73938;SDS011;62291;47.554;8.504;2022-12-07T01:55:10;51.97;;;28.83;;
73938;SDS011;62291;47.554;8.504;2022-12-07T01:57:43;53.05;;;28.48;;
73938;SDS011;62291;47.554;8.504;2022-12-07T02:00:13;50.90;;;28.60;;
73938;SDS011;62291;47.554;8.504;2022-12-07T02:02:51;52.78;;;28.88;;
73938;SDS011;62291;47.554;8.504;2022-12-07T02:05:18;51.83;;;28.80;;
73938;SDS011;62291;47.554;8.504;2022-12-07T02:07:44;55.33;;;28.88;;
73938;SDS011;62291;47.554;8.504;2022-12-07T02:12:46;52.28;;;28.08;;
73938;SDS011;62291;47.554;8.504;2022-12-07T02:15:14;55.17;;;29.67;;
73938;SDS011;62291;47.554;8.504;2022-12-07T02:18:03;49.63;;;27.45;;
73938;SDS011;62291;47.554;8.504;2022-12-07T02:25:55;53.13;;;28.90;;
73938;SDS011;62291;47.554;8.504;2022-12-07T02:31:50;51.72;;;27.55;;
73938;SDS011;62291;47.554;8.504;2022-12-07T02:39:50;57.13;;;30.50;;
73938;SDS011;62291;47.554;8.504;2022-12-07T02:42:25;56.58;;;29.65;;
73938;SDS011;62291;47.554;8.504;2022-12-07T02:44:58;54.47;;;28.88;;
73938;SDS011;62291;47.554;8.504;2022-12-07T02:47:25;53.42;;;29.63;;
73938;SDS011;62291;47.554;8.504;2022-12-07T02:49:53;60.55;;;31.00;;
73938;SDS011;62291;47.554;8.504;2022-12-07T02:52:20;55.95;;;30.40;;
73938;SDS011;62291;47.554;8.504;2022-12-07T02:54:45;56.95;;;29.77;;
73938;SDS011;62291;47.554;8.504;2022-12-07T03:00:09;55.42;;;28.70;;
73938;SDS011;62291;47.554;8.504;2022-12-07T03:10:40;52.67;;;28.27;;
73938;SDS011;62291;47.554;8.504;2022-12-07T03:18:42;60.25;;;29.90;;
73938;SDS011;62291;47.554;8.504;2022-12-07T03:21:21;57.47;;;29.92;;
73938;SDS011;62291;47.554;8.504;2022-12-07T03:24:00;60.10;;;29.98;;
73938;SDS011;62291;47.554;8.504;2022-12-07T03:26:31;58.70;;;30.02;;
73938;SDS011;62291;47.554;8.504;2022-12-07T03:29:05;57.55;;;29.65;;
73938;SDS011;62291;47.554;8.504;2022-12-07T03:31:37;57.25;;;30.80;;
73938;SDS011;62291;47.554;8.504;2022-12-07T03:39:21;58.97;;;29.23;;
73938;SDS011;62291;47.554;8.504;2022-12-07T03:41:47;59.85;;;31.25;;
73938;SDS011;62291;47.554;8.504;2022-12-07T03:44:14;61.20;;;30.55;;
73938;SDS011;62291;47.554;8.504;2022-12-07T03:49:39;61.20;;;30.85;;
73938;SDS011;62291;47.554;8.504;2022-12-07T03:55:10;63.33;;;31.85;;
73938;SDS011;62291;47.554;8.504;2022-12-07T03:58:06;61.90;;;30.98;;
73938;SDS011;62291;47.554;8.504;2022-12-07T04:00:36;67.03;;;31.80;;
73938;SDS011;62291;47.554;8.504;2022-12-07T04:03:02;63.63;;;33.00;;
73938;SDS011;62291;47.554;8.504;2022-12-07T04:05:28;61.55;;;30.90;;
73938;SDS011;62291;47.554;8.504;2022-12-07T04:07:54;65.82;;;32.05;;
73938;SDS011;62291;47.554;8.504;2022-12-07T04:10:20;62.95;;;31.55;;
73938;SDS011;62291;47.554;8.504;2022-12-07T04:12:45;65.32;;;32.60;;
73938;SDS011;62291;47.554;8.504;2022-12-07T04:15:11;63.10;;;31.15;;
73938;SDS011;62291;47.554;8.504;2022-12-07T04:17:37;60.05;;;31.35;;
73938;SDS011;62291;47.554;8.504;2022-12-07T04:20:03;66.60;;;31.88;;
73938;SDS011;62291;47.554;8.504;2022-12-07T04:22:30;65.18;;;32.72;;
73938;SDS011;62291;47.554;8.504;2022-12-07T04:24:55;63.70;;;33.78;;
73938;SDS011;62291;47.554;8.504;2022-12-07T04:27:21;67.32;;;32.85;;
73938;SDS011;62291;47.554;8.504;2022-12-07T04:29:47;64.50;;;31.90;;
73938;SDS011;62291;47.554;8.504;2022-12-07T04:32:12;67.50;;;33.22;;
73938;SDS011;62291;47.554;8.504;2022-12-07T04:34:38;65.00;;;32.97;;
73938;SDS011;62291;47.554;8.504;2022-12-07T04:37:04;64.40;;;33.15;;
73938;SDS011;62291;47.554;8.504;2022-12-07T04:39:30;70.30;;;34.53;;
73938;SDS011;62291;47.554;8.504;2022-12-07T04:41:57;65.00;;;32.42;;
73938;SDS011;62291;47.554;8.504;2022-12-07T04:44:24;71.55;;;35.67;;
73938;SDS011;62291;47.554;8.504;2022-12-07T04:46:51;68.30;;;33.65;;
73938;SDS011;62291;47.554;8.504;2022-12-07T04:49:17;65.22;;;33.88;;
73938;SDS011;62291;47.554;8.504;2022-12-07T04:51:44;65.25;;;33.78;;
73938;SDS011;62291;47.554;8.504;2022-12-07T04:54:10;65.70;;;34.15;;
73938;SDS011;62291;47.554;8.504;2022-12-07T04:56:37;62.65;;;32.60;;
73938;SDS011;62291;47.554;8.504;2022-12-07T04:59:03;62.65;;;31.75;;
73938;SDS011;62291;47.554;8.504;2022-12-07T05:01:29;62.65;;;33.72;;
73938;SDS011;62291;47.554;8.504;2022-12-07T05:03:55;68.25;;;33.15;;
73938;SDS011;62291;47.554;8.504;2022-12-07T05:06:21;62.88;;;33.35;;
73938;SDS011;62291;47.554;8.504;2022-12-07T05:08:47;61.95;;;32.25;;
73938;SDS011;62291;47.554;8.504;2022-12-07T05:11:13;59.80;;;31.77;;
73938;SDS011;62291;47.554;8.504;2022-12-07T05:13:58;63.78;;;31.98;;
73938;SDS011;62291;47.554;8.504;2022-12-07T05:16:24;70.90;;;34.70;;
73938;SDS011;62291;47.554;8.504;2022-12-07T05:18:49;70.40;;;33.33;;
73938;SDS011;62291;47.554;8.504;2022-12-07T05:21:15;66.03;;;33.53;;
73938;SDS011;62291;47.554;8.504;2022-12-07T05:23:41;72.13;;;34.13;;
73938;SDS011;62291;47.554;8.504;2022-12-07T05:26:06;70.55;;;33.60;;
73938;SDS011;62291;47.554;8.504;2022-12-07T05:28:32;71.70;;;36.65;;
73938;SDS011;62291;47.554;8.504;2022-12-07T05:30:57;70.85;;;33.90;;
73938;SDS011;62291;47.554;8.504;2022-12-07T05:33:23;68.43;;;34.17;;
73938;SDS011;62291;47.554;8.504;2022-12-07T05:35:49;64.10;;;33.28;;
73938;SDS011;62291;47.554;8.504;2022-12-07T05:38:14;69.88;;;33.22;;
73938;SDS011;62291;47.554;8.504;2022-12-07T05:40:40;66.68;;;34.35;;
73938;SDS011;62291;47.554;8.504;2022-12-07T05:43:06;61.38;;;32.28;;
73938;SDS011;62291;47.554;8.504;2022-12-07T05:45:31;65.68;;;32.50;;
73938;SDS011;62291;47.554;8.504;2022-12-07T05:47:57;68.82;;;33.25;;
73938;SDS011;62291;47.554;8.504;2022-12-07T05:50:23;71.40;;;33.42;;
73938;SDS011;62291;47.554;8.504;2022-12-07T05:52:48;68.57;;;34.03;;
73938;SDS011;62291;47.554;8.504;2022-12-07T05:55:14;73.45;;;33.92;;
73938;SDS011;62291;47.554;8.504;2022-12-07T05:57:40;79.50;;;36.25;;
73938;SDS011;62291;47.554;8.504;2022-12-07T06:00:25;78.28;;;35.80;;
73938;SDS011;62291;47.554;8.504;2022-12-07T06:02:51;71.47;;;34.75;;
73938;SDS011;62291;47.554;8.504;2022-12-07T06:05:16;72.97;;;35.38;;
73938;SDS011;62291;47.554;8.504;2022-12-07T06:07:42;69.97;;;34.10;;
73938;SDS011;62291;47.554;8.504;2022-12-07T06:10:08;71.65;;;33.92;;
73938;SDS011;62291;47.554;8.504;2022-12-07T06:12:34;68.30;;;34.20;;
73938;SDS011;62291;47.554;8.504;2022-12-07T06:14:59;71.03;;;33.35;;
73938;SDS011;62291;47.554;8.504;2022-12-07T06:17:25;72.22;;;34.42;;
73938;SDS011;62291;47.554;8.504;2022-12-07T06:19:51;73.45;;;34.30;;
73938;SDS011;62291;47.554;8.504;2022-12-07T06:22:17;79.05;;;35.88;;
73938;SDS011;62291;47.554;8.504;2022-12-07T06:24:43;83.65;;;35.65;;
73938;SDS011;62291;47.554;8.504;2022-12-07T06:27:09;86.80;;;36.95;;
73938;SDS011;62291;47.554;8.504;2022-12-07T06:29:35;83.75;;;35.85;;
73938;SDS011;62291;47.554;8.504;2022-12-07T06:32:00;85.68;;;37.25;;
73938;SDS011;62291;47.554;8.504;2022-12-07T06:34:26;84.82;;;37.85;;
73938;SDS011;62291;47.554;8.504;2022-12-07T06:36:52;92.15;;;39.33;;
73938;SDS011;62291;47.554;8.504;2022-12-07T06:39:28;83.32;;;37.35;;
73938;SDS011;62291;47.554;8.504;2022-12-07T06:41:54;92.60;;;37.95;;
73938;SDS011;62291;47.554;8.504;2022-12-07T06:44:21;86.47;;;36.88;;
73938;SDS011;62291;47.554;8.504;2022-12-07T06:46:47;82.45;;;37.13;;
73938;SDS011;62291;47.554;8.504;2022-12-07T06:49:13;87.78;;;38.33;;
73938;SDS011;62291;47.554;8.504;2022-12-07T06:51:39;83.85;;;38.83;;
73938;SDS011;62291;47.554;8.504;2022-12-07T06:54:11;89.57;;;39.08;;
73938;SDS011;62291;47.554;8.504;2022-12-07T06:56:37;83.22;;;38.42;;
73938;SDS011;62291;47.554;8.504;2022-12-07T06:59:04;82.15;;;38.03;;
73938;SDS011;62291;47.554;8.504;2022-12-07T07:01:31;95.57;;;37.83;;
73938;SDS011;62291;47.554;8.504;2022-12-07T07:03:58;91.00;;;39.83;;
73938;SDS011;62291;47.554;8.504;2022-12-07T07:06:23;93.07;;;39.75;;
73938;SDS011;62291;47.554;8.504;2022-12-07T07:08:49;86.20;;;37.88;;
73938;SDS011;62291;47.554;8.504;2022-12-07T07:11:15;93.00;;;38.50;;
73938;SDS011;62291;47.554;8.504;2022-12-07T07:13:40;89.53;;;38.75;;
73938;SDS011;62291;47.554;8.504;2022-12-07T07:16:06;84.43;;;38.25;;
73938;SDS011;62291;47.554;8.504;2022-12-07T07:18:33;81.93;;;38.08;;
73938;SDS011;62291;47.554;8.504;2022-12-07T07:20:59;74.38;;;36.78;;
73938;SDS011;62291;47.554;8.504;2022-12-07T07:23:25;77.45;;;36.28;;
73938;SDS011;62291;47.554;8.504;2022-12-07T07:25:51;77.82;;;35.65;;
73938;SDS011;62291;47.554;8.504;2022-12-07T07:28:17;79.15;;;36.75;;
73938;SDS011;62291;47.554;8.504;2022-12-07T07:30:43;80.28;;;36.60;;
73938;SDS011;62291;47.554;8.504;2022-12-07T07:33:09;75.45;;;35.97;;
73938;SDS011;62291;47.554;8.504;2022-12-07T07:35:35;74.65;;;36.67;;
73938;SDS011;62291;47.554;8.504;2022-12-07T07:38:02;74.20;;;37.35;;
73938;SDS011;62291;47.554;8.504;2022-12-07T07:40:28;73.85;;;36.92;;
73938;SDS011;62291;47.554;8.504;2022-12-07T07:42:54;73.35;;;35.15;;
73938;SDS011;62291;47.554;8.504;2022-12-07T07:45:20;78.28;;;36.35;;
73938;SDS011;62291;47.554;8.504;2022-12-07T07:47:47;72.28;;;36.50;;
73938;SDS011;62291;47.554;8.504;2022-12-07T07:50:13;71.57;;;36.00;;
73938;SDS011;62291;47.554;8.504;2022-12-07T07:52:39;70.93;;;34.97;;
73938;SDS011;62291;47.554;8.504;2022-12-07T07:55:05;69.68;;;36.38;;
73938;SDS011;62291;47.554;8.504;2022-12-07T07:57:33;73.00;;;35.83;;
73938;SDS011;62291;47.554;8.504;2022-12-07T08:00:00;68.47;;;36.38;;
73938;SDS011;62291;47.554;8.504;2022-12-07T08:02:26;70.85;;;35.58;;
73938;SDS011;62291;47.554;8.504;2022-12-07T08:04:54;66.35;;;33.15;;
73938;SDS011;62291;47.554;8.504;2022-12-07T08:07:20;65.25;;;35.20;;
73938;SDS011;62291;47.554;8.504;2022-12-07T08:09:45;70.20;;;36.63;;
73938;SDS011;62291;47.554;8.504;2022-12-07T08:12:11;68.22;;;35.80;;
73938;SDS011;62291;47.554;8.504;2022-12-07T08:14:37;68.20;;;35.63;;
73938;SDS011;62291;47.554;8.504;2022-12-07T08:17:03;71.90;;;35.42;;
73938;SDS011;62291;47.554;8.504;2022-12-07T08:19:28;70.55;;;36.53;;
73938;SDS011;62291;47.554;8.504;2022-12-07T08:21:54;75.18;;;38.10;;
73938;SDS011;62291;47.554;8.504;2022-12-07T08:24:21;79.30;;;37.70;;
73938;SDS011;62291;47.554;8.504;2022-12-07T08:26:46;68.72;;;34.72;;
73938;SDS011;62291;47.554;8.504;2022-12-07T08:29:13;67.85;;;35.65;;
73938;SDS011;62291;47.554;8.504;2022-12-07T08:31:39;68.05;;;35.88;;
73938;SDS011;62291;47.554;8.504;2022-12-07T08:34:04;72.57;;;36.65;;
73938;SDS011;62291;47.554;8.504;2022-12-07T08:36:30;73.38;;;37.97;;
73938;SDS011;62291;47.554;8.504;2022-12-07T08:38:56;74.53;;;39.15;;
73938;SDS011;62291;47.554;8.504;2022-12-07T08:41:21;71.47;;;36.75;;
73938;SDS011;62291;47.554;8.504;2022-12-07T08:43:47;67.32;;;35.65;;
73938;SDS011;62291;47.554;8.504;2022-12-07T08:46:20;68.22;;;35.88;;
73938;SDS011;62291;47.554;8.504;2022-12-07T08:51:15;66.03;;;35.88;;
73938;SDS011;62291;47.554;8.504;2022-12-07T08:53:41;70.55;;;36.53;;
73938;SDS011;62291;47.554;8.504;2022-12-07T08:56:08;72.03;;;36.58;;
73938;SDS011;62291;47.554;8.504;2022-12-07T08:58:34;68.53;;;35.55;;
73938;SDS011;62291;47.554;8.504;2022-12-07T09:01:02;65.57;;;34.67;;
73938;SDS011;62291;47.554;8.504;2022-12-07T09:03:28;65.05;;;35.33;;
73938;SDS011;62291;47.554;8.504;2022-12-07T09:05:54;63.70;;;34.78;;
73938;SDS011;62291;47.554;8.504;2022-12-07T09:08:20;65.78;;;35.92;;
73938;SDS011;62291;47.554;8.504;2022-12-07T09:10:48;63.67;;;34.67;;
73938;SDS011;62291;47.554;8.504;2022-12-07T09:13:14;61.90;;;33.13;;
73938;SDS011;62291;47.554;8.504;2022-12-07T09:15:39;67.72;;;35.30;;
73938;SDS011;62291;47.554;8.504;2022-12-07T09:18:05;73.00;;;35.47;;
73938;SDS011;62291;47.554;8.504;2022-12-07T09:20:31;69.20;;;35.80;;
73938;SDS011;62291;47.554;8.504;2022-12-07T09:22:56;67.22;;;35.13;;
73938;SDS011;62291;47.554;8.504;2022-12-07T09:25:22;67.03;;;34.78;;
73938;SDS011;62291;47.554;8.504;2022-12-07T09:27:48;70.30;;;36.13;;
73938;SDS011;62291;47.554;8.504;2022-12-07T09:30:19;64.00;;;34.38;;
73938;SDS011;62291;47.554;8.504;2022-12-07T09:32:45;70.43;;;36.17;;
73938;SDS011;62291;47.554;8.504;2022-12-07T09:35:11;62.75;;;33.20;;
73938;SDS011;62291;47.554;8.504;2022-12-07T09:37:36;66.63;;;33.80;;
73938;SDS011;62291;47.554;8.504;2022-12-07T09:40:02;61.15;;;32.88;;
73938;SDS011;62291;47.554;8.504;2022-12-07T09:42:31;66.28;;;34.15;;
73938;SDS011;62291;47.554;8.504;2022-12-07T09:45:00;62.65;;;35.08;;
73938;SDS011;62291;47.554;8.504;2022-12-07T09:47:27;67.10;;;36.15;;
73938;SDS011;62291;47.554;8.504;2022-12-07T09:49:55;63.08;;;35.03;;
73938;SDS011;62291;47.554;8.504;2022-12-07T09:52:28;59.75;;;34.00;;
73938;SDS011;62291;47.554;8.504;2022-12-07T09:54:54;61.03;;;32.63;;
73938;SDS011;62291;47.554;8.504;2022-12-07T09:57:23;58.50;;;33.38;;
73938;SDS011;62291;47.554;8.504;2022-12-07T09:59:57;55.80;;;30.83;;
73938;SDS011;62291;47.554;8.504;2022-12-07T10:02:37;53.92;;;29.88;;
73938;SDS011;62291;47.554;8.504;2022-12-07T10:05:11;55.50;;;30.13;;
73938;SDS011;62291;47.554;8.504;2022-12-07T10:07:39;55.20;;;30.77;;
73938;SDS011;62291;47.554;8.504;2022-12-07T10:10:15;53.97;;;30.23;;
73938;SDS011;62291;47.554;8.504;2022-12-07T10:13:22;53.90;;;28.48;;
73938;SDS011;62291;47.554;8.504;2022-12-07T10:15:45;50.83;;;28.00;;
73938;SDS011;62291;47.554;8.504;2022-12-07T10:21:04;50.80;;;28.83;;
73938;SDS011;62291;47.554;8.504;2022-12-07T10:23:35;52.22;;;29.60;;
73938;SDS011;62291;47.554;8.504;2022-12-07T10:28:53;47.75;;;27.63;;
73938;SDS011;62291;47.554;8.504;2022-12-07T10:31:20;50.00;;;30.23;;
73938;SDS011;62291;47.554;8.504;2022-12-07T10:33:52;46.22;;;26.92;;
73938;SDS011;62291;47.554;8.504;2022-12-07T10:36:25;46.55;;;26.83;;
73938;SDS011;62291;47.554;8.504;2022-12-07T10:39:18;41.55;;;24.77;;
73938;SDS011;62291;47.554;8.504;2022-12-07T10:42:19;41.65;;;23.50;;
73938;SDS011;62291;47.554;8.504;2022-12-07T10:45:07;43.90;;;24.50;;
73938;SDS011;62291;47.554;8.504;2022-12-07T10:47:38;39.97;;;24.65;;
73938;SDS011;62291;47.554;8.504;2022-12-07T10:50:28;36.03;;;23.33;;
73938;SDS011;62291;47.554;8.504;2022-12-07T11:04:24;33.90;;;19.77;;
73938;SDS011;62291;47.554;8.504;2022-12-07T11:15:14;31.60;;;18.83;;
73938;SDS011;62291;47.554;8.504;2022-12-07T11:37:16;26.30;;;16.05;;
73938;SDS011;62291;47.554;8.504;2022-12-07T11:39:52;21.50;;;14.57;;
73938;SDS011;62291;47.554;8.504;2022-12-07T11:42:25;20.08;;;13.68;;
73938;SDS011;62291;47.554;8.504;2022-12-07T11:47:30;22.20;;;14.18;;
73938;SDS011;62291;47.554;8.504;2022-12-07T11:50:34;21.95;;;13.60;;
73938;SDS011;62291;47.554;8.504;2022-12-07T11:55:43;21.35;;;13.05;;
73938;SDS011;62291;47.554;8.504;2022-12-07T12:03:45;23.13;;;13.45;;
73938;SDS011;62291;47.554;8.504;2022-12-07T12:06:14;19.17;;;12.82;;
73938;SDS011;62291;47.554;8.504;2022-12-07T12:08:44;17.60;;;12.07;;
73938;SDS011;62291;47.554;8.504;2022-12-07T12:19:10;15.90;;;10.43;;
73938;SDS011;62291;47.554;8.504;2022-12-07T12:21:56;12.98;;;8.57;;
73938;SDS011;62291;47.554;8.504;2022-12-07T12:24:29;12.23;;;8.20;;
73938;SDS011;62291;47.554;8.504;2022-12-07T12:27:05;12.93;;;8.35;;
73938;SDS011;62291;47.554;8.504;2022-12-07T12:29:39;11.85;;;8.00;;
73938;SDS011;62291;47.554;8.504;2022-12-07T12:34:40;13.68;;;9.32;;
73938;SDS011;62291;47.554;8.504;2022-12-07T12:42:49;14.70;;;9.90;;
73938;SDS011;62291;47.554;8.504;2022-12-07T12:45:27;14.50;;;9.82;;
73938;SDS011;62291;47.554;8.504;2022-12-07T12:54:03;14.20;;;9.60;;
73938;SDS011;62291;47.554;8.504;2022-12-07T12:59:21;14.43;;;9.07;;
73938;SDS011;62291;47.554;8.504;2022-12-07T13:05:16;12.95;;;8.68;;
73938;SDS011;62291;47.554;8.504;2022-12-07T13:07:49;13.40;;;9.68;;
73938;SDS011;62291;47.554;8.504;2022-12-07T13:13:04;16.48;;;10.13;;
73938;SDS011;62291;47.554;8.504;2022-12-07T13:15:40;14.63;;;9.95;;
73938;SDS011;62291;47.554;8.504;2022-12-07T13:28:48;15.43;;;10.18;;
73938;SDS011;62291;47.554;8.504;2022-12-07T13:31:37;14.70;;;10.18;;
73938;SDS011;62291;47.554;8.504;2022-12-07T13:34:04;14.52;;;9.85;;
73938;SDS011;62291;47.554;8.504;2022-12-07T13:36:50;15.85;;;9.70;;
73938;SDS011;62291;47.554;8.504;2022-12-07T13:41:44;14.98;;;10.02;;
73938;SDS011;62291;47.554;8.504;2022-12-07T13:44:16;15.27;;;10.68;;
73938;SDS011;62291;47.554;8.504;2022-12-07T13:46:44;17.92;;;10.50;;
73938;SDS011;62291;47.554;8.504;2022-12-07T13:49:25;14.63;;;10.23;;
73938;SDS011;62291;47.554;8.504;2022-12-07T13:51:53;15.10;;;10.23;;
73938;SDS011;62291;47.554;8.504;2022-12-07T13:54:20;14.23;;;10.52;;
73938;SDS011;62291;47.554;8.504;2022-12-07T13:56:48;17.38;;;10.88;;
73938;SDS011;62291;47.554;8.504;2022-12-07T13:59:21;16.85;;;10.38;;
73938;SDS011;62291;47.554;8.504;2022-12-07T14:01:50;16.00;;;10.80;;
73938;SDS011;62291;47.554;8.504;2022-12-07T14:04:31;16.45;;;10.57;;
73938;SDS011;62291;47.554;8.504;2022-12-07T14:07:00;16.75;;;10.38;;
73938;SDS011;62291;47.554;8.504;2022-12-07T14:09:52;17.33;;;11.77;;
73938;SDS011;62291;47.554;8.504;2022-12-07T14:12:22;16.85;;;11.18;;
73938;SDS011;62291;47.554;8.504;2022-12-07T14:14:50;17.70;;;11.40;;
73938;SDS011;62291;47.554;8.504;2022-12-07T14:17:19;17.35;;;10.85;;
73938;SDS011;62291;47.554;8.504;2022-12-07T14:27:50;16.27;;;10.75;;
73938;SDS011;62291;47.554;8.504;2022-12-07T14:30:21;17.80;;;12.25;;
73938;SDS011;62291;47.554;8.504;2022-12-07T14:32:51;21.20;;;13.85;;
73938;SDS011;62291;47.554;8.504;2022-12-07T14:35:19;19.95;;;12.90;;
73938;SDS011;62291;47.554;8.504;2022-12-07T14:37:46;18.08;;;11.45;;
73938;SDS011;62291;47.554;8.504;2022-12-07T14:40:13;17.40;;;11.52;;
73938;SDS011;62291;47.554;8.504;2022-12-07T14:42:41;17.58;;;10.98;;
73938;SDS011;62291;47.554;8.504;2022-12-07T14:45:26;20.95;;;12.10;;
73938;SDS011;62291;47.554;8.504;2022-12-07T14:47:51;16.80;;;10.70;;
73938;SDS011;62291;47.554;8.504;2022-12-07T14:50:18;16.42;;;10.40;;
73938;SDS011;62291;47.554;8.504;2022-12-07T14:52:50;19.88;;;11.38;;
73938;SDS011;62291;47.554;8.504;2022-12-07T14:55:24;18.95;;;11.85;;
73938;SDS011;62291;47.554;8.504;2022-12-07T14:57:52;16.63;;;10.93;;
73938;SDS011;62291;47.554;8.504;2022-12-07T15:00:18;18.70;;;11.55;;
73938;SDS011;62291;47.554;8.504;2022-12-07T15:02:45;20.40;;;11.35;;
73938;SDS011;62291;47.554;8.504;2022-12-07T15:05:12;19.40;;;11.48;;
73938;SDS011;62291;47.554;8.504;2022-12-07T15:07:38;18.08;;;11.70;;
73938;SDS011;62291;47.554;8.504;2022-12-07T15:10:05;20.30;;;11.20;;
73938;SDS011;62291;47.554;8.504;2022-12-07T15:12:31;19.42;;;11.52;;
73938;SDS011;62291;47.554;8.504;2022-12-07T15:14:57;21.05;;;12.15;;
73938;SDS011;62291;47.554;8.504;2022-12-07T15:17:23;18.90;;;11.80;;
73938;SDS011;62291;47.554;8.504;2022-12-07T15:19:48;21.65;;;12.30;;
73938;SDS011;62291;47.554;8.504;2022-12-07T15:22:14;17.98;;;11.20;;
73938;SDS011;62291;47.554;8.504;2022-12-07T15:24:40;16.40;;;10.57;;
73938;SDS011;62291;47.554;8.504;2022-12-07T15:27:05;20.08;;;11.98;;
73938;SDS011;62291;47.554;8.504;2022-12-07T15:29:31;18.15;;;11.00;;
73938;SDS011;62291;47.554;8.504;2022-12-07T15:31:57;18.33;;;11.07;;
73938;SDS011;62291;47.554;8.504;2022-12-07T15:34:23;21.83;;;11.63;;
73938;SDS011;62291;47.554;8.504;2022-12-07T15:36:50;20.67;;;12.68;;
73938;SDS011;62291;47.554;8.504;2022-12-07T15:39:16;21.52;;;12.57;;
73938;SDS011;62291;47.554;8.504;2022-12-07T15:41:41;29.08;;;12.65;;
73938;SDS011;62291;47.554;8.504;2022-12-07T15:44:09;27.05;;;13.68;;
73938;SDS011;62291;47.554;8.504;2022-12-07T15:46:55;20.27;;;11.82;;
73938;SDS011;62291;47.554;8.504;2022-12-07T15:49:21;22.75;;;12.75;;
73938;SDS011;62291;47.554;8.504;2022-12-07T15:51:47;21.08;;;11.95;;
73938;SDS011;62291;47.554;8.504;2022-12-07T15:54:13;24.00;;;12.95;;
73938;SDS011;62291;47.554;8.504;2022-12-07T15:56:43;31.10;;;13.43;;
73938;SDS011;62291;47.554;8.504;2022-12-07T15:59:08;23.10;;;12.73;;
73938;SDS011;62291;47.554;8.504;2022-12-07T16:01:34;22.40;;;12.65;;
73938;SDS011;62291;47.554;8.504;2022-12-07T16:04:00;22.70;;;12.55;;
73938;SDS011;62291;47.554;8.504;2022-12-07T16:06:25;24.77;;;12.98;;
73938;SDS011;62291;47.554;8.504;2022-12-07T16:08:51;26.85;;;13.88;;
73938;SDS011;62291;47.554;8.504;2022-12-07T16:11:17;25.40;;;12.88;;
73938;SDS011;62291;47.554;8.504;2022-12-07T16:13:43;21.67;;;12.18;;
73938;SDS011;62291;47.554;8.504;2022-12-07T16:16:15;24.17;;;12.95;;
73938;SDS011;62291;47.554;8.504;2022-12-07T16:18:44;21.75;;;11.75;;
73938;SDS011;62291;47.554;8.504;2022-12-07T16:21:11;21.92;;;11.05;;
73938;SDS011;62291;47.554;8.504;2022-12-07T16:23:37;20.55;;;11.27;;
73938;SDS011;62291;47.554;8.504;2022-12-07T16:26:07;27.33;;;13.55;;
73938;SDS011;62291;47.554;8.504;2022-12-07T16:28:35;21.23;;;11.57;;
73938;SDS011;62291;47.554;8.504;2022-12-07T16:31:05;25.40;;;13.38;;
73938;SDS011;62291;47.554;8.504;2022-12-07T16:33:35;25.70;;;13.45;;
73938;SDS011;62291;47.554;8.504;2022-12-07T16:36:03;27.40;;;13.65;;
73938;SDS011;62291;47.554;8.504;2022-12-07T16:38:30;23.83;;;12.82;;
73938;SDS011;62291;47.554;8.504;2022-12-07T16:40:56;28.58;;;15.55;;
73938;SDS011;62291;47.554;8.504;2022-12-07T16:43:21;30.02;;;15.40;;
73938;SDS011;62291;47.554;8.504;2022-12-07T16:45:47;28.73;;;15.63;;
73938;SDS011;62291;47.554;8.504;2022-12-07T16:48:14;28.83;;;15.45;;
73938;SDS011;62291;47.554;8.504;2022-12-07T16:50:40;30.45;;;14.93;;
73938;SDS011;62291;47.554;8.504;2022-12-07T16:53:07;30.50;;;14.85;;
73938;SDS011;62291;47.554;8.504;2022-12-07T16:55:37;29.38;;;15.18;;
73938;SDS011;62291;47.554;8.504;2022-12-07T16:58:03;31.20;;;15.02;;
73938;SDS011;62291;47.554;8.504;2022-12-07T17:00:29;27.40;;;14.93;;
73938;SDS011;62291;47.554;8.504;2022-12-07T17:02:55;32.00;;;14.75;;
73938;SDS011;62291;47.554;8.504;2022-12-07T17:05:21;30.63;;;15.18;;
73938;SDS011;62291;47.554;8.504;2022-12-07T17:07:46;31.55;;;15.35;;